Waukomis, Oklahoma
Current Conditions -  °F | °C
As of 1:59 PM on Tuesday 21 Oct 2014 (Local Time) from KEND Reporting Station
Broken Clouds Broken Clouds  
Wind Chill: 79°   Ceiling: 6000
Heat Index: 80°   Visibility: 10mi
Dew Point: 61°   Wind: 6mph
Humidity: 54%   Direction: 130°SE
Pressure: 30.07"   Gusts: NA
Location:  36.28°N, 97.9°W
Report Text: KEND 211859Z 13005KT 10SM BKN060 26/16 A3007 RMK AO2A SLP175
Loading
Personal Weather Stations






























Interactive Weather Map
Tropical Storm Tracking
New forecast layout! Learn more

10-Day Weather Forecast

Advertisements
Track Severe Weather on mobile